sensor_id;sensor_type;location;lat;lon;timestamp;P1;durP1;ratioP1;P2;durP2;ratioP2
3597;SDS011;1813;52.016;8.714;2024-03-07T00:02:26;39.67;;;24.60;;
3597;SDS011;1813;52.016;8.714;2024-03-07T00:04:59;41.10;;;24.50;;
3597;SDS011;1813;52.016;8.714;2024-03-07T00:07:32;39.03;;;24.00;;
3597;SDS011;1813;52.016;8.714;2024-03-07T00:10:06;41.70;;;24.57;;
3597;SDS011;1813;52.016;8.714;2024-03-07T00:12:40;39.27;;;24.30;;
3597;SDS011;1813;52.016;8.714;2024-03-07T00:15:16;40.83;;;25.30;;
3597;SDS011;1813;52.016;8.714;2024-03-07T00:17:51;38.60;;;25.00;;
3597;SDS011;1813;52.016;8.714;2024-03-07T00:20:24;39.87;;;24.73;;
3597;SDS011;1813;52.016;8.714;2024-03-07T00:22:58;40.20;;;25.70;;
3597;SDS011;1813;52.016;8.714;2024-03-07T00:25:33;38.63;;;24.70;;
3597;SDS011;1813;52.016;8.714;2024-03-07T00:28:06;39.53;;;24.03;;
3597;SDS011;1813;52.016;8.714;2024-03-07T00:30:42;38.83;;;23.87;;
3597;SDS011;1813;52.016;8.714;2024-03-07T00:33:15;44.47;;;25.53;;
3597;SDS011;1813;52.016;8.714;2024-03-07T00:35:51;38.40;;;24.13;;
3597;SDS011;1813;52.016;8.714;2024-03-07T00:38:25;37.87;;;24.40;;
3597;SDS011;1813;52.016;8.714;2024-03-07T00:40:58;40.10;;;25.30;;
3597;SDS011;1813;52.016;8.714;2024-03-07T00:43:32;39.80;;;24.30;;
3597;SDS011;1813;52.016;8.714;2024-03-07T00:46:08;36.80;;;24.53;;
3597;SDS011;1813;52.016;8.714;2024-03-07T00:48:41;37.50;;;24.07;;
3597;SDS011;1813;52.016;8.714;2024-03-07T00:51:15;37.30;;;24.90;;
3597;SDS011;1813;52.016;8.714;2024-03-07T00:53:49;47.30;;;25.87;;
3597;SDS011;1813;52.016;8.714;2024-03-07T00:56:22;40.10;;;23.80;;
3597;SDS011;1813;52.016;8.714;2024-03-07T00:58:55;37.23;;;24.30;;
3597;SDS011;1813;52.016;8.714;2024-03-07T01:01:32;42.93;;;25.40;;
3597;SDS011;1813;52.016;8.714;2024-03-07T01:04:06;42.10;;;25.00;;
3597;SDS011;1813;52.016;8.714;2024-03-07T01:06:40;32.97;;;22.30;;
3597;SDS011;1813;52.016;8.714;2024-03-07T01:09:13;38.97;;;24.93;;
3597;SDS011;1813;52.016;8.714;2024-03-07T01:11:49;32.27;;;20.57;;
3597;SDS011;1813;52.016;8.714;2024-03-07T01:14:22;30.37;;;18.80;;
3597;SDS011;1813;52.016;8.714;2024-03-07T01:16:58;35.70;;;23.30;;
3597;SDS011;1813;52.016;8.714;2024-03-07T01:19:32;37.07;;;24.23;;
3597;SDS011;1813;52.016;8.714;2024-03-07T01:22:05;38.90;;;24.53;;
3597;SDS011;1813;52.016;8.714;2024-03-07T01:24:39;42.23;;;26.57;;
3597;SDS011;1813;52.016;8.714;2024-03-07T01:27:13;43.53;;;26.53;;
3597;SDS011;1813;52.016;8.714;2024-03-07T01:29:47;42.63;;;26.50;;
3597;SDS011;1813;52.016;8.714;2024-03-07T01:32:22;45.77;;;26.60;;
3597;SDS011;1813;52.016;8.714;2024-03-07T01:34:56;46.87;;;27.90;;
3597;SDS011;1813;52.016;8.714;2024-03-07T01:37:29;46.03;;;26.70;;
3597;SDS011;1813;52.016;8.714;2024-03-07T01:40:03;47.13;;;27.80;;
3597;SDS011;1813;52.016;8.714;2024-03-07T01:42:37;44.23;;;26.40;;
3597;SDS011;1813;52.016;8.714;2024-03-07T01:45:10;48.43;;;27.10;;
3597;SDS011;1813;52.016;8.714;2024-03-07T01:47:46;44.30;;;26.20;;
3597;SDS011;1813;52.016;8.714;2024-03-07T01:50:19;38.90;;;24.97;;
3597;SDS011;1813;52.016;8.714;2024-03-07T01:52:53;41.13;;;25.23;;
3597;SDS011;1813;52.016;8.714;2024-03-07T01:55:27;39.13;;;23.83;;
3597;SDS011;1813;52.016;8.714;2024-03-07T01:58:02;34.47;;;22.70;;
3597;SDS011;1813;52.016;8.714;2024-03-07T02:00:37;37.50;;;24.33;;
3597;SDS011;1813;52.016;8.714;2024-03-07T02:03:13;36.87;;;23.03;;
3597;SDS011;1813;52.016;8.714;2024-03-07T02:05:47;34.60;;;22.23;;
3597;SDS011;1813;52.016;8.714;2024-03-07T02:08:21;42.30;;;23.53;;
3597;SDS011;1813;52.016;8.714;2024-03-07T02:10:54;41.60;;;24.73;;
3597;SDS011;1813;52.016;8.714;2024-03-07T02:13:28;33.43;;;20.50;;
3597;SDS011;1813;52.016;8.714;2024-03-07T02:16:02;41.43;;;22.70;;
3597;SDS011;1813;52.016;8.714;2024-03-07T02:18:38;35.43;;;22.97;;
3597;SDS011;1813;52.016;8.714;2024-03-07T02:21:14;37.40;;;23.50;;
3597;SDS011;1813;52.016;8.714;2024-03-07T02:23:47;41.53;;;24.23;;
3597;SDS011;1813;52.016;8.714;2024-03-07T02:26:21;42.17;;;25.00;;
3597;SDS011;1813;52.016;8.714;2024-03-07T02:28:54;45.03;;;26.73;;
3597;SDS011;1813;52.016;8.714;2024-03-07T02:31:28;43.67;;;27.47;;
3597;SDS011;1813;52.016;8.714;2024-03-07T02:34:05;46.73;;;27.63;;
3597;SDS011;1813;52.016;8.714;2024-03-07T02:36:41;44.87;;;26.67;;
3597;SDS011;1813;52.016;8.714;2024-03-07T02:39:14;33.57;;;21.20;;
3597;SDS011;1813;52.016;8.714;2024-03-07T02:41:48;33.53;;;21.67;;
3597;SDS011;1813;52.016;8.714;2024-03-07T02:44:21;33.23;;;20.90;;
3597;SDS011;1813;52.016;8.714;2024-03-07T02:46:54;37.93;;;22.93;;
3597;SDS011;1813;52.016;8.714;2024-03-07T02:49:28;40.20;;;25.10;;
3597;SDS011;1813;52.016;8.714;2024-03-07T02:52:04;41.10;;;24.97;;
3597;SDS011;1813;52.016;8.714;2024-03-07T02:54:38;45.27;;;25.17;;
3597;SDS011;1813;52.016;8.714;2024-03-07T02:57:11;41.30;;;24.37;;
3597;SDS011;1813;52.016;8.714;2024-03-07T02:59:46;41.97;;;24.83;;
3597;SDS011;1813;52.016;8.714;2024-03-07T03:02:19;39.23;;;23.73;;
3597;SDS011;1813;52.016;8.714;2024-03-07T03:04:52;40.00;;;24.47;;
3597;SDS011;1813;52.016;8.714;2024-03-07T03:07:29;39.07;;;24.40;;
3597;SDS011;1813;52.016;8.714;2024-03-07T03:10:02;39.10;;;24.57;;
3597;SDS011;1813;52.016;8.714;2024-03-07T03:12:40;35.07;;;22.73;;
3597;SDS011;1813;52.016;8.714;2024-03-07T03:15:14;35.00;;;21.73;;
3597;SDS011;1813;52.016;8.714;2024-03-07T03:17:50;34.93;;;21.97;;
3597;SDS011;1813;52.016;8.714;2024-03-07T03:20:24;36.97;;;22.80;;
3597;SDS011;1813;52.016;8.714;2024-03-07T03:23:06;46.47;;;25.87;;
3597;SDS011;1813;52.016;8.714;2024-03-07T03:25:41;41.27;;;25.03;;
3597;SDS011;1813;52.016;8.714;2024-03-07T03:28:15;42.07;;;26.03;;
3597;SDS011;1813;52.016;8.714;2024-03-07T03:30:49;38.10;;;23.90;;
3597;SDS011;1813;52.016;8.714;2024-03-07T03:33:23;45.63;;;26.70;;
3597;SDS011;1813;52.016;8.714;2024-03-07T03:35:56;43.87;;;25.30;;
3597;SDS011;1813;52.016;8.714;2024-03-07T03:38:33;44.30;;;27.60;;
3597;SDS011;1813;52.016;8.714;2024-03-07T03:41:06;46.80;;;28.00;;
3597;SDS011;1813;52.016;8.714;2024-03-07T03:43:40;47.80;;;28.60;;
3597;SDS011;1813;52.016;8.714;2024-03-07T03:46:13;47.50;;;28.97;;
3597;SDS011;1813;52.016;8.714;2024-03-07T03:48:47;46.03;;;25.77;;
3597;SDS011;1813;52.016;8.714;2024-03-07T03:51:20;47.07;;;28.80;;
3597;SDS011;1813;52.016;8.714;2024-03-07T03:53:57;51.30;;;30.53;;
3597;SDS011;1813;52.016;8.714;2024-03-07T03:56:31;51.40;;;30.10;;
3597;SDS011;1813;52.016;8.714;2024-03-07T03:59:04;52.77;;;31.13;;
3597;SDS011;1813;52.016;8.714;2024-03-07T04:01:39;50.30;;;30.70;;
3597;SDS011;1813;52.016;8.714;2024-03-07T04:04:12;50.80;;;30.97;;
3597;SDS011;1813;52.016;8.714;2024-03-07T04:06:46;53.03;;;32.57;;
3597;SDS011;1813;52.016;8.714;2024-03-07T04:09:22;48.60;;;28.63;;
3597;SDS011;1813;52.016;8.714;2024-03-07T04:11:58;54.07;;;30.63;;
3597;SDS011;1813;52.016;8.714;2024-03-07T04:14:32;55.33;;;32.10;;
3597;SDS011;1813;52.016;8.714;2024-03-07T04:17:06;50.33;;;31.37;;
3597;SDS011;1813;52.016;8.714;2024-03-07T04:19:40;53.40;;;31.10;;
3597;SDS011;1813;52.016;8.714;2024-03-07T04:22:14;51.00;;;31.53;;
3597;SDS011;1813;52.016;8.714;2024-03-07T04:24:51;54.90;;;31.57;;
3597;SDS011;1813;52.016;8.714;2024-03-07T04:27:26;46.97;;;27.93;;
3597;SDS011;1813;52.016;8.714;2024-03-07T04:30:00;43.27;;;26.97;;
3597;SDS011;1813;52.016;8.714;2024-03-07T04:32:34;54.10;;;28.80;;
3597;SDS011;1813;52.016;8.714;2024-03-07T04:35:08;54.20;;;31.77;;
3597;SDS011;1813;52.016;8.714;2024-03-07T04:37:42;51.90;;;30.47;;
3597;SDS011;1813;52.016;8.714;2024-03-07T04:40:18;51.70;;;30.83;;
3597;SDS011;1813;52.016;8.714;2024-03-07T04:42:52;57.37;;;32.60;;
3597;SDS011;1813;52.016;8.714;2024-03-07T04:45:26;62.63;;;34.37;;
3597;SDS011;1813;52.016;8.714;2024-03-07T04:48:01;64.03;;;36.20;;
3597;SDS011;1813;52.016;8.714;2024-03-07T04:50:35;61.27;;;35.57;;
3597;SDS011;1813;52.016;8.714;2024-03-07T04:53:08;60.63;;;35.47;;
3597;SDS011;1813;52.016;8.714;2024-03-07T04:55:44;61.87;;;35.07;;
3597;SDS011;1813;52.016;8.714;2024-03-07T04:58:18;59.97;;;35.03;;
3597;SDS011;1813;52.016;8.714;2024-03-07T05:00:51;62.60;;;35.60;;
3597;SDS011;1813;52.016;8.714;2024-03-07T05:03:24;63.40;;;37.07;;
3597;SDS011;1813;52.016;8.714;2024-03-07T05:05:58;65.20;;;37.37;;
3597;SDS011;1813;52.016;8.714;2024-03-07T05:08:31;68.67;;;36.30;;
3597;SDS011;1813;52.016;8.714;2024-03-07T05:11:07;61.57;;;36.50;;
3597;SDS011;1813;52.016;8.714;2024-03-07T05:13:41;62.97;;;35.33;;
3597;SDS011;1813;52.016;8.714;2024-03-07T05:16:15;64.27;;;35.10;;
3597;SDS011;1813;52.016;8.714;2024-03-07T05:18:50;58.23;;;33.47;;
3597;SDS011;1813;52.016;8.714;2024-03-07T05:21:23;59.70;;;34.40;;
3597;SDS011;1813;52.016;8.714;2024-03-07T05:24:06;58.37;;;34.73;;
3597;SDS011;1813;52.016;8.714;2024-03-07T05:26:42;60.43;;;34.33;;
3597;SDS011;1813;52.016;8.714;2024-03-07T05:29:16;60.43;;;34.27;;
3597;SDS011;1813;52.016;8.714;2024-03-07T05:31:49;59.00;;;35.10;;
3597;SDS011;1813;52.016;8.714;2024-03-07T05:34:22;59.53;;;35.10;;
3597;SDS011;1813;52.016;8.714;2024-03-07T05:36:58;58.00;;;34.80;;
3597;SDS011;1813;52.016;8.714;2024-03-07T05:39:32;57.93;;;33.40;;
3597;SDS011;1813;52.016;8.714;2024-03-07T05:42:08;57.17;;;33.93;;
3597;SDS011;1813;52.016;8.714;2024-03-07T05:44:44;58.57;;;33.73;;
3597;SDS011;1813;52.016;8.714;2024-03-07T05:47:18;50.90;;;31.43;;
3597;SDS011;1813;52.016;8.714;2024-03-07T05:49:52;54.57;;;33.70;;
3597;SDS011;1813;52.016;8.714;2024-03-07T05:52:25;54.80;;;32.70;;
3597;SDS011;1813;52.016;8.714;2024-03-07T05:54:58;58.63;;;34.13;;
3597;SDS011;1813;52.016;8.714;2024-03-07T05:57:35;55.30;;;32.23;;
3597;SDS011;1813;52.016;8.714;2024-03-07T06:00:09;62.63;;;34.03;;
3597;SDS011;1813;52.016;8.714;2024-03-07T06:02:45;62.03;;;34.67;;
3597;SDS011;1813;52.016;8.714;2024-03-07T06:05:20;60.80;;;35.63;;
3597;SDS011;1813;52.016;8.714;2024-03-07T06:07:54;63.00;;;37.13;;
3597;SDS011;1813;52.016;8.714;2024-03-07T06:10:29;57.37;;;35.00;;
3597;SDS011;1813;52.016;8.714;2024-03-07T06:13:05;59.20;;;35.93;;
3597;SDS011;1813;52.016;8.714;2024-03-07T06:15:39;68.30;;;35.63;;
3597;SDS011;1813;52.016;8.714;2024-03-07T06:18:13;59.17;;;35.47;;
3597;SDS011;1813;52.016;8.714;2024-03-07T06:20:47;61.80;;;34.97;;
3597;SDS011;1813;52.016;8.714;2024-03-07T06:23:21;69.17;;;35.97;;
3597;SDS011;1813;52.016;8.714;2024-03-07T06:25:54;64.23;;;35.97;;
3597;SDS011;1813;52.016;8.714;2024-03-07T06:28:32;63.23;;;36.10;;
3597;SDS011;1813;52.016;8.714;2024-03-07T06:31:05;57.97;;;34.80;;
3597;SDS011;1813;52.016;8.714;2024-03-07T06:33:40;64.63;;;35.10;;
3597;SDS011;1813;52.016;8.714;2024-03-07T06:36:13;65.43;;;38.03;;
3597;SDS011;1813;52.016;8.714;2024-03-07T06:38:47;65.13;;;36.90;;
3597;SDS011;1813;52.016;8.714;2024-03-07T06:41:20;68.30;;;36.70;;
3597;SDS011;1813;52.016;8.714;2024-03-07T06:43:57;63.43;;;36.30;;
3597;SDS011;1813;52.016;8.714;2024-03-07T06:46:31;63.80;;;36.70;;
3597;SDS011;1813;52.016;8.714;2024-03-07T06:49:04;64.33;;;34.87;;
3597;SDS011;1813;52.016;8.714;2024-03-07T06:51:40;61.63;;;35.10;;
3597;SDS011;1813;52.016;8.714;2024-03-07T06:54:14;66.20;;;36.90;;
3597;SDS011;1813;52.016;8.714;2024-03-07T06:56:49;62.30;;;37.00;;
3597;SDS011;1813;52.016;8.714;2024-03-07T06:59:25;59.40;;;35.30;;
3597;SDS011;1813;52.016;8.714;2024-03-07T07:01:59;61.63;;;37.37;;
3597;SDS011;1813;52.016;8.714;2024-03-07T07:04:33;61.57;;;36.60;;
3597;SDS011;1813;52.016;8.714;2024-03-07T07:07:11;61.77;;;35.53;;
3597;SDS011;1813;52.016;8.714;2024-03-07T07:09:45;63.23;;;36.90;;
3597;SDS011;1813;52.016;8.714;2024-03-07T07:12:22;60.33;;;35.87;;
3597;SDS011;1813;52.016;8.714;2024-03-07T07:14:59;63.47;;;35.80;;
3597;SDS011;1813;52.016;8.714;2024-03-07T07:17:33;62.20;;;36.57;;
3597;SDS011;1813;52.016;8.714;2024-03-07T07:20:07;59.27;;;34.97;;
3597;SDS011;1813;52.016;8.714;2024-03-07T07:22:45;54.27;;;34.10;;
3597;SDS011;1813;52.016;8.714;2024-03-07T07:25:20;54.53;;;33.87;;
3597;SDS011;1813;52.016;8.714;2024-03-07T07:27:54;57.67;;;33.33;;
3597;SDS011;1813;52.016;8.714;2024-03-07T07:30:30;59.73;;;34.30;;
3597;SDS011;1813;52.016;8.714;2024-03-07T07:33:04;62.23;;;36.13;;
3597;SDS011;1813;52.016;8.714;2024-03-07T07:35:37;64.53;;;36.70;;
3597;SDS011;1813;52.016;8.714;2024-03-07T07:38:13;55.20;;;32.80;;
3597;SDS011;1813;52.016;8.714;2024-03-07T07:40:49;60.40;;;36.20;;
3597;SDS011;1813;52.016;8.714;2024-03-07T07:43:22;58.97;;;35.40;;
3597;SDS011;1813;52.016;8.714;2024-03-07T07:45:58;64.03;;;36.37;;
3597;SDS011;1813;52.016;8.714;2024-03-07T07:48:31;62.63;;;35.93;;
3597;SDS011;1813;52.016;8.714;2024-03-07T07:51:05;55.70;;;34.60;;
3597;SDS011;1813;52.016;8.714;2024-03-07T07:53:38;54.77;;;33.77;;
3597;SDS011;1813;52.016;8.714;2024-03-07T07:56:11;58.37;;;33.23;;
3597;SDS011;1813;52.016;8.714;2024-03-07T07:58:45;57.77;;;35.30;;
3597;SDS011;1813;52.016;8.714;2024-03-07T08:01:21;54.57;;;33.37;;
3597;SDS011;1813;52.016;8.714;2024-03-07T08:03:55;59.97;;;33.40;;
3597;SDS011;1813;52.016;8.714;2024-03-07T08:06:28;52.27;;;33.20;;
3597;SDS011;1813;52.016;8.714;2024-03-07T08:09:02;57.23;;;35.17;;
3597;SDS011;1813;52.016;8.714;2024-03-07T08:11:37;55.57;;;34.23;;
3597;SDS011;1813;52.016;8.714;2024-03-07T08:14:11;57.27;;;34.30;;
3597;SDS011;1813;52.016;8.714;2024-03-07T08:16:50;54.63;;;32.73;;
3597;SDS011;1813;52.016;8.714;2024-03-07T08:19:25;56.20;;;32.50;;
3597;SDS011;1813;52.016;8.714;2024-03-07T08:21:58;52.40;;;32.67;;
3597;SDS011;1813;52.016;8.714;2024-03-07T08:24:32;55.07;;;34.30;;
3597;SDS011;1813;52.016;8.714;2024-03-07T08:27:05;52.27;;;31.60;;
3597;SDS011;1813;52.016;8.714;2024-03-07T08:29:41;54.60;;;32.63;;
3597;SDS011;1813;52.016;8.714;2024-03-07T08:32:17;50.97;;;31.80;;
3597;SDS011;1813;52.016;8.714;2024-03-07T08:34:50;53.87;;;32.03;;
3597;SDS011;1813;52.016;8.714;2024-03-07T08:37:24;53.27;;;31.50;;
3597;SDS011;1813;52.016;8.714;2024-03-07T08:39:58;51.70;;;32.30;;
3597;SDS011;1813;52.016;8.714;2024-03-07T08:42:31;56.10;;;33.80;;
3597;SDS011;1813;52.016;8.714;2024-03-07T08:45:06;58.10;;;34.07;;
3597;SDS011;1813;52.016;8.714;2024-03-07T08:47:45;56.60;;;33.67;;
3597;SDS011;1813;52.016;8.714;2024-03-07T08:50:19;60.47;;;34.27;;
3597;SDS011;1813;52.016;8.714;2024-03-07T08:52:52;60.10;;;34.63;;
3597;SDS011;1813;52.016;8.714;2024-03-07T08:55:26;58.40;;;33.83;;
3597;SDS011;1813;52.016;8.714;2024-03-07T08:58:00;62.97;;;35.17;;
3597;SDS011;1813;52.016;8.714;2024-03-07T09:00:33;58.33;;;34.47;;
3597;SDS011;1813;52.016;8.714;2024-03-07T09:03:10;62.67;;;34.57;;
3597;SDS011;1813;52.016;8.714;2024-03-07T09:05:43;69.03;;;35.70;;
3597;SDS011;1813;52.016;8.714;2024-03-07T09:08:17;73.33;;;35.90;;
3597;SDS011;1813;52.016;8.714;2024-03-07T09:10:50;65.30;;;35.30;;
3597;SDS011;1813;52.016;8.714;2024-03-07T09:13:25;71.03;;;35.30;;
3597;SDS011;1813;52.016;8.714;2024-03-07T09:15:58;66.87;;;35.80;;
3597;SDS011;1813;52.016;8.714;2024-03-07T09:18:37;61.43;;;34.97;;
3597;SDS011;1813;52.016;8.714;2024-03-07T09:21:13;61.53;;;35.00;;
3597;SDS011;1813;52.016;8.714;2024-03-07T09:23:46;68.53;;;36.07;;
3597;SDS011;1813;52.016;8.714;2024-03-07T09:26:20;62.60;;;35.53;;
3597;SDS011;1813;52.016;8.714;2024-03-07T09:28:53;66.80;;;35.10;;
3597;SDS011;1813;52.016;8.714;2024-03-07T09:31:27;63.03;;;35.47;;
3597;SDS011;1813;52.016;8.714;2024-03-07T09:34:04;68.97;;;36.67;;
3597;SDS011;1813;52.016;8.714;2024-03-07T09:36:38;67.47;;;35.67;;
3597;SDS011;1813;52.016;8.714;2024-03-07T09:39:12;74.30;;;37.43;;
3597;SDS011;1813;52.016;8.714;2024-03-07T09:41:45;74.27;;;36.33;;
3597;SDS011;1813;52.016;8.714;2024-03-07T09:44:19;81.33;;;36.90;;
3597;SDS011;1813;52.016;8.714;2024-03-07T09:46:57;79.30;;;36.20;;
3597;SDS011;1813;52.016;8.714;2024-03-07T09:49:35;81.50;;;34.20;;
3597;SDS011;1813;52.016;8.714;2024-03-07T09:52:09;83.80;;;36.37;;
3597;SDS011;1813;52.016;8.714;2024-03-07T09:54:45;83.70;;;37.20;;
3597;SDS011;1813;52.016;8.714;2024-03-07T09:57:18;96.20;;;38.30;;
3597;SDS011;1813;52.016;8.714;2024-03-07T09:59:53;94.23;;;38.67;;
3597;SDS011;1813;52.016;8.714;2024-03-07T10:02:29;91.73;;;37.43;;
3597;SDS011;1813;52.016;8.714;2024-03-07T10:05:14;84.07;;;37.80;;
3597;SDS011;1813;52.016;8.714;2024-03-07T10:07:49;84.87;;;36.00;;
3597;SDS011;1813;52.016;8.714;2024-03-07T10:10:23;84.20;;;36.13;;
3597;SDS011;1813;52.016;8.714;2024-03-07T10:12:56;90.23;;;39.27;;
3597;SDS011;1813;52.016;8.714;2024-03-07T10:15:30;81.33;;;36.60;;
3597;SDS011;1813;52.016;8.714;2024-03-07T10:18:06;81.27;;;37.87;;
3597;SDS011;1813;52.016;8.714;2024-03-07T10:20:44;88.50;;;38.13;;
3597;SDS011;1813;52.016;8.714;2024-03-07T10:23:18;81.13;;;36.97;;
3597;SDS011;1813;52.016;8.714;2024-03-07T10:25:52;90.30;;;37.87;;
3597;SDS011;1813;52.016;8.714;2024-03-07T10:28:27;85.20;;;37.00;;
3597;SDS011;1813;52.016;8.714;2024-03-07T10:31:01;79.23;;;36.40;;
3597;SDS011;1813;52.016;8.714;2024-03-07T10:33:41;79.10;;;34.73;;
3597;SDS011;1813;52.016;8.714;2024-03-07T10:36:19;80.03;;;35.60;;
3597;SDS011;1813;52.016;8.714;2024-03-07T10:38:53;79.73;;;35.60;;
3597;SDS011;1813;52.016;8.714;2024-03-07T10:41:27;82.23;;;34.27;;
3597;SDS011;1813;52.016;8.714;2024-03-07T10:44:01;81.53;;;33.23;;
3597;SDS011;1813;52.016;8.714;2024-03-07T10:46:37;76.97;;;34.57;;
3597;SDS011;1813;52.016;8.714;2024-03-07T10:49:11;77.27;;;32.70;;
3597;SDS011;1813;52.016;8.714;2024-03-07T10:51:53;72.10;;;32.10;;
3597;SDS011;1813;52.016;8.714;2024-03-07T10:54:36;70.60;;;31.43;;
3597;SDS011;1813;52.016;8.714;2024-03-07T10:57:19;69.77;;;32.30;;
3597;SDS011;1813;52.016;8.714;2024-03-07T10:59:56;75.77;;;32.53;;
3597;SDS011;1813;52.016;8.714;2024-03-07T11:02:42;72.47;;;31.67;;
3597;SDS011;1813;52.016;8.714;2024-03-07T11:05:21;57.93;;;26.80;;
3597;SDS011;1813;52.016;8.714;2024-03-07T11:08:03;63.10;;;29.20;;
3597;SDS011;1813;52.016;8.714;2024-03-07T11:10:41;63.73;;;30.03;;
3597;SDS011;1813;52.016;8.714;2024-03-07T11:13:17;60.80;;;29.73;;
3597;SDS011;1813;52.016;8.714;2024-03-07T11:15:51;69.90;;;29.93;;
3597;SDS011;1813;52.016;8.714;2024-03-07T11:18:28;66.13;;;29.77;;
3597;SDS011;1813;52.016;8.714;2024-03-07T11:21:01;58.80;;;28.93;;
3597;SDS011;1813;52.016;8.714;2024-03-07T11:23:40;61.40;;;29.17;;
3597;SDS011;1813;52.016;8.714;2024-03-07T11:26:18;58.53;;;29.20;;
3597;SDS011;1813;52.016;8.714;2024-03-07T11:28:53;53.50;;;27.47;;
3597;SDS011;1813;52.016;8.714;2024-03-07T11:31:29;59.37;;;27.13;;
3597;SDS011;1813;52.016;8.714;2024-03-07T11:34:12;56.80;;;28.60;;
3597;SDS011;1813;52.016;8.714;2024-03-07T11:36:49;56.07;;;26.93;;
3597;SDS011;1813;52.016;8.714;2024-03-07T11:39:43;56.77;;;26.90;;
3597;SDS011;1813;52.016;8.714;2024-03-07T11:42:25;53.57;;;26.30;;
3597;SDS011;1813;52.016;8.714;2024-03-07T11:45:01;52.47;;;26.30;;
3597;SDS011;1813;52.016;8.714;2024-03-07T11:47:37;53.33;;;26.17;;
3597;SDS011;1813;52.016;8.714;2024-03-07T11:50:11;59.07;;;25.57;;
3597;SDS011;1813;52.016;8.714;2024-03-07T11:52:50;53.40;;;25.47;;
3597;SDS011;1813;52.016;8.714;2024-03-07T11:55:27;52.93;;;26.80;;
3597;SDS011;1813;52.016;8.714;2024-03-07T11:58:12;53.43;;;25.60;;
3597;SDS011;1813;52.016;8.714;2024-03-07T12:00:46;53.50;;;24.30;;
3597;SDS011;1813;52.016;8.714;2024-03-07T12:03:21;51.63;;;25.50;;
3597;SDS011;1813;52.016;8.714;2024-03-07T12:05:55;49.93;;;24.13;;
3597;SDS011;1813;52.016;8.714;2024-03-07T12:08:28;53.40;;;26.90;;
3597;SDS011;1813;52.016;8.714;2024-03-07T12:11:05;54.20;;;26.80;;
3597;SDS011;1813;52.016;8.714;2024-03-07T12:13:42;47.50;;;24.80;;
3597;SDS011;1813;52.016;8.714;2024-03-07T12:16:18;52.00;;;24.97;;
3597;SDS011;1813;52.016;8.714;2024-03-07T12:18:52;53.43;;;26.13;;
3597;SDS011;1813;52.016;8.714;2024-03-07T12:21:25;50.57;;;25.13;;
3597;SDS011;1813;52.016;8.714;2024-03-07T12:23:59;51.70;;;25.90;;
3597;SDS011;1813;52.016;8.714;2024-03-07T12:26:47;49.17;;;25.10;;
3597;SDS011;1813;52.016;8.714;2024-03-07T12:29:25;52.10;;;26.33;;
3597;SDS011;1813;52.016;8.714;2024-03-07T12:31:59;49.50;;;25.60;;
3597;SDS011;1813;52.016;8.714;2024-03-07T12:34:32;47.00;;;25.33;;
3597;SDS011;1813;52.016;8.714;2024-03-07T12:37:07;47.67;;;24.40;;
3597;SDS011;1813;52.016;8.714;2024-03-07T12:39:42;50.80;;;23.70;;
3597;SDS011;1813;52.016;8.714;2024-03-07T12:42:31;51.57;;;26.57;;
3597;SDS011;1813;52.016;8.714;2024-03-07T12:45:07;52.07;;;26.07;;
3597;SDS011;1813;52.016;8.714;2024-03-07T12:47:47;57.80;;;25.37;;
3597;SDS011;1813;52.016;8.714;2024-03-07T12:50:25;49.07;;;24.27;;
3597;SDS011;1813;52.016;8.714;2024-03-07T12:52:58;46.70;;;24.23;;
3597;SDS011;1813;52.016;8.714;2024-03-07T12:55:35;38.10;;;20.47;;
3597;SDS011;1813;52.016;8.714;2024-03-07T12:58:14;47.30;;;23.03;;
3597;SDS011;1813;52.016;8.714;2024-03-07T13:00:49;50.60;;;25.60;;
3597;SDS011;1813;52.016;8.714;2024-03-07T13:03:20;58.37;;;27.03;;
3597;SDS011;1813;52.016;8.714;2024-03-07T13:05:58;47.53;;;25.40;;
3597;SDS011;1813;52.016;8.714;2024-03-07T13:08:34;59.50;;;28.10;;
3597;SDS011;1813;52.016;8.714;2024-03-07T13:11:08;54.80;;;26.17;;
3597;SDS011;1813;52.016;8.714;2024-03-07T13:13:44;50.33;;;25.47;;
3597;SDS011;1813;52.016;8.714;2024-03-07T13:16:18;58.80;;;25.80;;
3597;SDS011;1813;52.016;8.714;2024-03-07T13:18:51;56.27;;;26.53;;
3597;SDS011;1813;52.016;8.714;2024-03-07T13:21:25;54.27;;;26.27;;
3597;SDS011;1813;52.016;8.714;2024-03-07T13:24:00;56.27;;;27.70;;
3597;SDS011;1813;52.016;8.714;2024-03-07T13:26:34;56.13;;;27.03;;
3597;SDS011;1813;52.016;8.714;2024-03-07T13:29:10;57.97;;;27.10;;
3597;SDS011;1813;52.016;8.714;2024-03-07T13:31:44;54.30;;;26.57;;
3597;SDS011;1813;52.016;8.714;2024-03-07T13:34:19;54.63;;;26.30;;
3597;SDS011;1813;52.016;8.714;2024-03-07T13:36:56;54.10;;;26.83;;
3597;SDS011;1813;52.016;8.714;2024-03-07T13:39:31;54.80;;;25.37;;
3597;SDS011;1813;52.016;8.714;2024-03-07T13:42:05;54.73;;;26.90;;
3597;SDS011;1813;52.016;8.714;2024-03-07T13:44:44;48.10;;;24.70;;
3597;SDS011;1813;52.016;8.714;2024-03-07T13:47:18;50.27;;;24.70;;
3597;SDS011;1813;52.016;8.714;2024-03-07T13:49:51;49.53;;;24.57;;
3597;SDS011;1813;52.016;8.714;2024-03-07T13:52:24;46.70;;;22.90;;
3597;SDS011;1813;52.016;8.714;2024-03-07T13:55:03;60.40;;;26.00;;
3597;SDS011;1813;52.016;8.714;2024-03-07T13:57:40;53.03;;;25.13;;
3597;SDS011;1813;52.016;8.714;2024-03-07T14:00:25;54.77;;;25.43;;
3597;SDS011;1813;52.016;8.714;2024-03-07T14:03:18;60.30;;;26.27;;
3597;SDS011;1813;52.016;8.714;2024-03-07T14:06:03;53.33;;;27.30;;
3597;SDS011;1813;52.016;8.714;2024-03-07T14:08:52;59.40;;;26.63;;
3597;SDS011;1813;52.016;8.714;2024-03-07T14:11:52;64.13;;;28.20;;
3597;SDS011;1813;52.016;8.714;2024-03-07T14:15:04;55.83;;;26.87;;
3597;SDS011;1813;52.016;8.714;2024-03-07T14:24:36;56.10;;;26.33;;
3597;SDS011;1813;52.016;8.714;2024-03-07T14:27:36;59.00;;;27.40;;
3597;SDS011;1813;52.016;8.714;2024-03-07T14:30:21;55.93;;;27.20;;
3597;SDS011;1813;52.016;8.714;2024-03-07T14:33:11;68.37;;;28.00;;
3597;SDS011;1813;52.016;8.714;2024-03-07T14:35:58;58.23;;;25.70;;
3597;SDS011;1813;52.016;8.714;2024-03-07T14:38:47;50.67;;;26.37;;
3597;SDS011;1813;52.016;8.714;2024-03-07T14:41:24;49.03;;;25.00;;
3597;SDS011;1813;52.016;8.714;2024-03-07T14:44:17;49.27;;;24.70;;
3597;SDS011;1813;52.016;8.714;2024-03-07T14:46:55;49.07;;;23.90;;
3597;SDS011;1813;52.016;8.714;2024-03-07T14:49:31;54.93;;;25.37;;
3597;SDS011;1813;52.016;8.714;2024-03-07T14:52:06;49.43;;;24.37;;
3597;SDS011;1813;52.016;8.714;2024-03-07T14:54:41;48.23;;;25.93;;
3597;SDS011;1813;52.016;8.714;2024-03-07T14:57:16;52.70;;;25.37;;
3597;SDS011;1813;52.016;8.714;2024-03-07T14:59:50;47.37;;;24.40;;
3597;SDS011;1813;52.016;8.714;2024-03-07T15:02:26;46.97;;;24.70;;
3597;SDS011;1813;52.016;8.714;2024-03-07T15:05:00;45.90;;;23.33;;
3597;SDS011;1813;52.016;8.714;2024-03-07T15:07:35;44.17;;;23.43;;
3597;SDS011;1813;52.016;8.714;2024-03-07T15:10:10;48.17;;;23.67;;
3597;SDS011;1813;52.016;8.714;2024-03-07T15:12:50;53.53;;;24.50;;
3597;SDS011;1813;52.016;8.714;2024-03-07T15:15:23;44.20;;;23.53;;
3597;SDS011;1813;52.016;8.714;2024-03-07T15:18:05;43.20;;;23.73;;
3597;SDS011;1813;52.016;8.714;2024-03-07T15:20:40;41.67;;;22.13;;
3597;SDS011;1813;52.016;8.714;2024-03-07T15:23:14;40.27;;;21.20;;
3597;SDS011;1813;52.016;8.714;2024-03-07T15:25:47;38.77;;;21.33;;
3597;SDS011;1813;52.016;8.714;2024-03-07T15:28:20;39.20;;;20.57;;
3597;SDS011;1813;52.016;8.714;2024-03-07T15:30:54;38.90;;;20.77;;
3597;SDS011;1813;52.016;8.714;2024-03-07T15:33:32;46.33;;;20.70;;
3597;SDS011;1813;52.016;8.714;2024-03-07T15:36:06;38.37;;;21.40;;
3597;SDS011;1813;52.016;8.714;2024-03-07T15:38:42;43.13;;;23.07;;
3597;SDS011;1813;52.016;8.714;2024-03-07T15:41:15;39.50;;;22.53;;
3597;SDS011;1813;52.016;8.714;2024-03-07T15:43:49;47.47;;;26.00;;
3597;SDS011;1813;52.016;8.714;2024-03-07T15:46:23;44.50;;;24.10;;